sensor_id;sensor_type;location;lat;lon;timestamp;pressure;altitude;pressure_sealevel;temperature;humidity
43681;BME280;29281;50.356;30.894;2023-01-28T08:22:09;100644.77;;;-1.45;100.00
43681;BME280;29281;50.356;30.894;2023-01-28T08:23:17;100647.08;;;-1.22;100.00
43681;BME280;29281;50.356;30.894;2023-01-28T08:24:20;100644.75;;;-1.43;100.00
43681;BME280;29281;50.356;30.894;2023-01-28T08:25:24;100653.31;;;-1.33;100.00
43681;BME280;29281;50.356;30.894;2023-01-28T08:26:28;100637.52;;;-1.21;100.00
43681;BME280;29281;50.356;30.894;2023-01-28T08:27:31;100640.17;;;-1.23;100.00
43681;BME280;29281;50.356;30.894;2023-01-28T08:28:35;100642.84;;;-1.29;100.00
43681;BME280;29281;50.356;30.894;2023-01-28T08:29:38;100643.16;;;-1.53;100.00
43681;BME280;29281;50.356;30.894;2023-01-28T08:30:43;100647.52;;;-1.55;100.00
43681;BME280;29281;50.356;30.894;2023-01-28T08:31:46;100642.06;;;-1.37;100.00
43681;BME280;29281;50.356;30.894;2023-01-28T08:32:54;100634.80;;;-1.12;100.00
43681;BME280;29281;50.356;30.894;2023-01-28T08:33:58;100635.82;;;-1.22;100.00
43681;BME280;29281;50.356;30.894;2023-01-28T08:35:04;100645.76;;;-1.53;100.00
43681;BME280;29281;50.356;30.894;2023-01-28T08:36:08;100641.33;;;-1.48;100.00
43681;BME280;29281;50.356;30.894;2023-01-28T08:37:15;100645.63;;;-1.44;100.00
43681;BME280;29281;50.356;30.894;2023-01-28T08:38:18;100639.14;;;-1.11;100.00
43681;BME280;29281;50.356;30.894;2023-01-28T08:39:23;100632.86;;;-0.96;100.00
43681;BME280;29281;50.356;30.894;2023-01-28T08:40:27;100637.00;;;-0.83;100.00
43681;BME280;29281;50.356;30.894;2023-01-28T08:41:31;100632.66;;;-0.83;100.00
43681;BME280;29281;50.356;30.894;2023-01-28T08:42:34;100629.98;;;-0.78;100.00
43681;BME280;29281;50.356;30.894;2023-01-28T08:43:37;100628.09;;;-0.68;100.00
43681;BME280;29281;50.356;30.894;2023-01-28T08:44:42;100629.89;;;-0.74;100.00
43681;BME280;29281;50.356;30.894;2023-01-28T08:45:47;100626.19;;;-0.59;100.00
43681;BME280;29281;50.356;30.894;2023-01-28T08:46:50;100622.19;;;-0.80;100.00
43681;BME280;29281;50.356;30.894;2023-01-28T08:48:00;100612.99;;;-1.07;100.00
43681;BME280;29281;50.356;30.894;2023-01-28T08:49:03;100622.81;;;-1.24;100.00
43681;BME280;29281;50.356;30.894;2023-01-28T08:50:07;100618.39;;;-1.20;100.00
43681;BME280;29281;50.356;30.894;2023-01-28T08:51:10;100614.45;;;-0.87;100.00
43681;BME280;29281;50.356;30.894;2023-01-28T08:52:13;100619.42;;;-0.71;100.00
43681;BME280;29281;50.356;30.894;2023-01-28T08:53:17;100611.55;;;-0.67;100.00
43681;BME280;29281;50.356;30.894;2023-01-28T08:54:21;100609.89;;;-0.73;100.00
43681;BME280;29281;50.356;30.894;2023-01-28T08:55:26;100605.63;;;-0.77;100.00
43681;BME280;29281;50.356;30.894;2023-01-28T08:56:29;100605.66;;;-0.79;100.00
43681;BME280;29281;50.356;30.894;2023-01-28T08:57:32;100600.82;;;-1.06;100.00
43681;BME280;29281;50.356;30.894;2023-01-28T08:58:36;100613.25;;;-1.23;100.00
43681;BME280;29281;50.356;30.894;2023-01-28T08:59:39;100611.23;;;-1.04;100.00
43681;BME280;29281;50.356;30.894;2023-01-28T09:00:43;100607.88;;;-1.13;100.00
43681;BME280;29281;50.356;30.894;2023-01-28T09:01:47;100603.35;;;-1.00;100.00
43681;BME280;29281;50.356;30.894;2023-01-28T09:02:52;100600.50;;;-0.83;100.00
43681;BME280;29281;50.356;30.894;2023-01-28T09:03:56;100600.92;;;-0.55;100.00
43681;BME280;29281;50.356;30.894;2023-01-28T09:04:59;100602.81;;;-0.63;100.00
43681;BME280;29281;50.356;30.894;2023-01-28T09:06:03;100609.98;;;-0.78;99.04
43681;BME280;29281;50.356;30.894;2023-01-28T09:07:06;100602.07;;;-0.73;98.69
43681;BME280;29281;50.356;30.894;2023-01-28T09:08:11;100600.28;;;-0.69;99.11
43681;BME280;29281;50.356;30.894;2023-01-28T09:09:16;100595.89;;;-0.66;98.97
43681;BME280;29281;50.356;30.894;2023-01-28T09:10:20;100594.16;;;-0.67;99.40
43681;BME280;29281;50.356;30.894;2023-01-28T09:11:24;100589.85;;;-0.69;99.28
43681;BME280;29281;50.356;30.894;2023-01-28T09:12:26;100587.18;;;-0.65;98.98
43681;BME280;29281;50.356;30.894;2023-01-28T09:13:30;100594.41;;;-0.82;97.88
43681;BME280;29281;50.356;30.894;2023-01-28T09:14:33;100591.12;;;-0.95;97.81
43681;BME280;29281;50.356;30.894;2023-01-28T09:15:35;100589.89;;;-0.73;96.49
43681;BME280;29281;50.356;30.894;2023-01-28T09:16:38;100590.36;;;-0.46;95.47
43681;BME280;29281;50.356;30.894;2023-01-28T09:17:42;100596.95;;;-0.27;94.46
43681;BME280;29281;50.356;30.894;2023-01-28T09:18:44;100586.50;;;-0.25;93.71
43681;BME280;29281;50.356;30.894;2023-01-28T09:19:49;100587.14;;;-0.62;94.68
43681;BME280;29281;50.356;30.894;2023-01-28T09:20:53;100579.73;;;-0.36;94.00
43681;BME280;29281;50.356;30.894;2023-01-28T09:21:55;100577.50;;;-0.09;93.53
43681;BME280;29281;50.356;30.894;2023-01-28T09:22:59;100583.95;;;-0.30;92.18
43681;BME280;29281;50.356;30.894;2023-01-28T09:24:03;100570.17;;;-0.37;93.48
43681;BME280;29281;50.356;30.894;2023-01-28T09:25:06;100575.72;;;-0.56;93.03
43681;BME280;29281;50.356;30.894;2023-01-28T09:26:10;100576.28;;;-0.38;92.66
43681;BME280;29281;50.356;30.894;2023-01-28T09:27:14;100574.51;;;-0.36;92.34
43681;BME280;29281;50.356;30.894;2023-01-28T09:28:18;100569.55;;;-0.02;92.13
43681;BME280;29281;50.356;30.894;2023-01-28T09:29:21;100573.34;;;-0.19;91.57
43681;BME280;29281;50.356;30.894;2023-01-28T09:30:24;100562.00;;;-0.17;92.11
43681;BME280;29281;50.356;30.894;2023-01-28T09:31:29;100563.56;;;-0.08;92.10
43681;BME280;29281;50.356;30.894;2023-01-28T09:32:33;100560.47;;;-0.30;92.62
43681;BME280;29281;50.356;30.894;2023-01-28T09:33:37;100557.10;;;-0.35;92.81
43681;BME280;29281;50.356;30.894;2023-01-28T09:34:43;100555.89;;;-0.16;92.69
43681;BME280;29281;50.356;30.894;2023-01-28T09:35:45;100557.50;;;-0.10;92.60
43681;BME280;29281;50.356;30.894;2023-01-28T09:36:50;100552.72;;;0.13;91.92
43681;BME280;29281;50.356;30.894;2023-01-28T09:37:57;100556.69;;;0.31;90.95
43681;BME280;29281;50.356;30.894;2023-01-28T09:39:02;100557.91;;;0.15;90.48
43681;BME280;29281;50.356;30.894;2023-01-28T09:40:06;100557.63;;;0.28;90.85
43681;BME280;29281;50.356;30.894;2023-01-28T09:41:58;100548.81;;;0.32;89.10
43681;BME280;29281;50.356;30.894;2023-01-28T09:46:10;100552.06;;;0.45;87.87
43681;BME280;29281;50.356;30.894;2023-01-28T09:47:16;100539.95;;;0.41;87.70
43681;BME280;29281;50.356;30.894;2023-01-28T09:48:20;100548.81;;;0.32;88.06
43681;BME280;29281;50.356;30.894;2023-01-28T09:49:34;100548.79;;;0.34;88.01
43681;BME280;29281;50.356;30.894;2023-01-28T09:50:40;100538.16;;;0.43;87.98
43681;BME280;29281;50.356;30.894;2023-01-28T09:51:49;100533.96;;;0.76;86.95
43681;BME280;29281;50.356;30.894;2023-01-28T09:52:49;100540.30;;;0.64;85.78
43681;BME280;29281;50.356;30.894;2023-01-28T09:53:58;100539.77;;;0.49;85.78
43681;BME280;29281;50.356;30.894;2023-01-28T09:55:09;100542.08;;;0.62;85.57
43681;BME280;29281;50.356;30.894;2023-01-28T09:56:13;100546.13;;;1.14;84.00
43681;BME280;29281;50.356;30.894;2023-01-28T09:57:20;100549.82;;;1.41;82.51
43681;BME280;29281;50.356;30.894;2023-01-28T09:58:23;100553.30;;;1.75;81.70
43681;BME280;29281;50.356;30.894;2023-01-28T09:59:26;100553.91;;;1.85;80.84
43681;BME280;29281;50.356;30.894;2023-01-28T10:00:34;100551.73;;;1.68;81.15
43681;BME280;29281;50.356;30.894;2023-01-28T10:01:52;100548.14;;;1.38;81.92
43681;BME280;29281;50.356;30.894;2023-01-28T10:10:03;100525.40;;;0.29;88.33
43681;BME280;29281;50.356;30.894;2023-01-28T10:11:19;100528.52;;;0.04;87.85
43681;BME280;29281;50.356;30.894;2023-01-28T10:13:26;100527.27;;;0.63;86.94
43681;BME280;29281;50.356;30.894;2023-01-28T10:17:06;100539.56;;;0.59;83.83
43681;BME280;29281;50.356;30.894;2023-01-28T10:18:11;100539.95;;;0.41;84.34
43681;BME280;29281;50.356;30.894;2023-01-28T10:19:18;100543.13;;;0.55;84.59
43681;BME280;29281;50.356;30.894;2023-01-28T10:20:23;100539.89;;;0.44;84.54
43681;BME280;29281;50.356;30.894;2023-01-28T10:21:42;100535.55;;;0.43;84.62
43681;BME280;29281;50.356;30.894;2023-01-28T10:23:58;100533.80;;;0.44;84.93
43681;BME280;29281;50.356;30.894;2023-01-28T10:25:02;100532.45;;;0.64;84.09
43681;BME280;29281;50.356;30.894;2023-01-28T10:26:15;100528.73;;;0.76;83.47
43681;BME280;29281;50.356;30.894;2023-01-28T10:27:25;100531.47;;;0.70;83.06
43681;BME280;29281;50.356;30.894;2023-01-28T10:28:28;100529.50;;;0.80;82.98
43681;BME280;29281;50.356;30.894;2023-01-28T10:29:32;100533.00;;;0.79;83.26
43681;BME280;29281;50.356;30.894;2023-01-28T10:30:37;100530.07;;;0.92;83.08
43681;BME280;29281;50.356;30.894;2023-01-28T10:31:52;100533.52;;;0.94;82.33
43681;BME280;29281;50.356;30.894;2023-01-28T10:34:08;100528.25;;;0.96;82.29
43681;BME280;29281;50.356;30.894;2023-01-28T10:35:13;100529.50;;;0.80;82.63
43681;BME280;29281;50.356;30.894;2023-01-28T10:36:19;100516.20;;;0.90;83.07
43681;BME280;29281;50.356;30.894;2023-01-28T10:37:22;100517.95;;;1.25;82.42
43681;BME280;29281;50.356;30.894;2023-01-28T10:38:27;100520.48;;;1.28;81.77
43681;BME280;29281;50.356;30.894;2023-01-28T10:39:32;100521.31;;;1.30;81.77
43681;BME280;29281;50.356;30.894;2023-01-28T10:40:37;100516.33;;;1.21;81.31
43681;BME280;29281;50.356;30.894;2023-01-28T10:41:42;100510.64;;;1.38;81.64
43681;BME280;29281;50.356;30.894;2023-01-28T10:42:47;100512.61;;;1.30;81.18
43681;BME280;29281;50.356;30.894;2023-01-28T10:43:53;100509.59;;;1.45;81.23
43681;BME280;29281;50.356;30.894;2023-01-28T10:45:02;100511.78;;;1.28;80.70
43681;BME280;29281;50.356;30.894;2023-01-28T10:46:16;100506.13;;;1.45;80.31
43681;BME280;29281;50.356;30.894;2023-01-28T10:47:23;100505.69;;;1.61;80.05
43681;BME280;29281;50.356;30.894;2023-01-28T10:48:27;100510.24;;;1.53;80.28
43681;BME280;29281;50.356;30.894;2023-01-28T10:49:30;100500.56;;;1.57;79.94
43681;BME280;29281;50.356;30.894;2023-01-28T10:50:49;100504.30;;;1.48;80.85
43681;BME280;29281;50.356;30.894;2023-01-28T12:35:02;100437.55;;;1.64;80.27
43681;BME280;29281;50.356;30.894;2023-01-28T12:37:33;100433.64;;;1.79;80.13
43681;BME280;29281;50.356;30.894;2023-01-28T12:39:58;100439.42;;;1.59;80.26
43681;BME280;29281;50.356;30.894;2023-01-28T12:41:02;100433.33;;;1.59;80.40
43681;BME280;29281;50.356;30.894;2023-01-28T12:42:12;100430.71;;;1.59;80.52
43681;BME280;29281;50.356;30.894;2023-01-28T12:44:32;100428.84;;;1.64;79.63
43681;BME280;29281;50.356;30.894;2023-01-28T12:45:40;100432.47;;;1.58;80.54
43681;BME280;29281;50.356;30.894;2023-01-28T12:46:44;100440.28;;;1.60;79.81
43681;BME280;29281;50.356;30.894;2023-01-28T12:47:52;100436.84;;;1.89;79.55
43681;BME280;29281;50.356;30.894;2023-01-28T12:49:05;100427.97;;;1.94;79.10
43681;BME280;29281;50.356;30.894;2023-01-28T12:50:19;100434.03;;;1.65;79.32
43681;BME280;29281;50.356;30.894;2023-01-28T12:51:29;100429.17;;;1.52;80.19
43681;BME280;29281;50.356;30.894;2023-01-28T12:52:41;100432.81;;;1.46;80.44
43681;BME280;29281;50.356;30.894;2023-01-28T12:56:13;100424.27;;;1.70;79.86
43681;BME280;29281;50.356;30.894;2023-01-28T12:57:24;100425.23;;;1.68;80.22
43681;BME280;29281;50.356;30.894;2023-01-28T12:58:33;100419.84;;;1.72;79.72
43681;BME280;29281;50.356;30.894;2023-01-28T12:59:35;100427.42;;;1.83;79.34
43681;BME280;29281;50.356;30.894;2023-01-28T13:00:39;100432.59;;;1.54;80.22
43681;BME280;29281;50.356;30.894;2023-01-28T13:03:08;100422.63;;;1.68;80.89
43681;BME280;29281;50.356;30.894;2023-01-28T13:04:03;100434.42;;;1.83;80.55
43681;BME280;29281;50.356;30.894;2023-01-28T13:05:13;100430.28;;;1.74;80.47
43681;BME280;29281;50.356;30.894;2023-01-28T13:06:22;100430.24;;;1.75;80.44
43681;BME280;29281;50.356;30.894;2023-01-28T13:07:43;100432.23;;;1.67;80.43
43681;BME280;29281;50.356;30.894;2023-01-28T13:08:45;100427.89;;;1.66;80.44
43681;BME280;29281;50.356;30.894;2023-01-28T13:09:51;100429.27;;;1.80;80.16
43681;BME280;29281;50.356;30.894;2023-01-28T13:11:00;100423.56;;;1.65;80.03
43681;BME280;29281;50.356;30.894;2023-01-28T13:12:01;100433.70;;;1.45;80.81
43681;BME280;29281;50.356;30.894;2023-01-28T13:13:06;100430.19;;;1.46;80.87
43681;BME280;29281;50.356;30.894;2023-01-28T13:14:11;100430.98;;;1.50;80.82
43681;BME280;29281;50.356;30.894;2023-01-28T13:15:17;100428.09;;;1.59;80.73
43681;BME280;29281;50.356;30.894;2023-01-28T13:16:20;100427.46;;;1.51;80.67
43681;BME280;29281;50.356;30.894;2023-01-28T13:18:33;100422.39;;;1.75;79.82
43681;BME280;29281;50.356;30.894;2023-01-28T13:20:55;100429.47;;;1.72;79.89
43681;BME280;29281;50.356;30.894;2023-01-28T13:22:08;100429.22;;;1.50;79.98
43681;BME280;29281;50.356;30.894;2023-01-28T13:23:03;100429.48;;;1.39;80.46
43681;BME280;29281;50.356;30.894;2023-01-28T13:25:20;100428.99;;;1.58;80.16
43681;BME280;29281;50.356;30.894;2023-01-28T13:26:28;100426.06;;;1.68;79.65
43681;BME280;29281;50.356;30.894;2023-01-28T13:27:33;100424.11;;;1.76;79.15
43681;BME280;29281;50.356;30.894;2023-01-28T13:28:37;100432.66;;;1.83;78.83
43681;BME280;29281;50.356;30.894;2023-01-28T13:29:46;100427.47;;;1.82;78.10
43681;BME280;29281;50.356;30.894;2023-01-28T13:30:49;100429.77;;;1.92;77.54
43681;BME280;29281;50.356;30.894;2023-01-28T13:31:53;100438.48;;;1.62;78.02
43681;BME280;29281;50.356;30.894;2023-01-28T13:32:58;100429.77;;;1.61;78.42
43681;BME280;29281;50.356;30.894;2023-01-28T13:34:03;100428.91;;;1.61;78.44
43681;BME280;29281;50.356;30.894;2023-01-28T13:35:26;100431.73;;;1.53;78.53
43681;BME280;29281;50.356;30.894;2023-01-28T13:37:27;100427.27;;;1.57;78.56
43681;BME280;29281;50.356;30.894;2023-01-28T13:38:29;100428.21;;;1.54;79.12
43681;BME280;29281;50.356;30.894;2023-01-28T13:39:33;100427.08;;;1.64;78.68
43681;BME280;29281;50.356;30.894;2023-01-28T13:40:37;100433.09;;;1.68;78.90
43681;BME280;29281;50.356;30.894;2023-01-28T13:41:44;100425.98;;;1.71;78.46
43681;BME280;29281;50.356;30.894;2023-01-28T13:43:05;100428.80;;;1.65;78.75
43681;BME280;29281;50.356;30.894;2023-01-28T13:44:19;100426.14;;;1.67;78.48
43681;BME280;29281;50.356;30.894;2023-01-28T13:45:20;100423.41;;;1.70;78.42
43681;BME280;29281;50.356;30.894;2023-01-28T13:46:26;100421.45;;;1.78;78.17
43681;BME280;29281;50.356;30.894;2023-01-28T13:47:31;100419.49;;;1.85;77.86
43681;BME280;29281;50.356;30.894;2023-01-28T13:48:44;100437.59;;;1.63;77.44
43681;BME280;29281;50.356;30.894;2023-01-28T13:49:46;100434.11;;;1.62;77.94
43681;BME280;29281;50.356;30.894;2023-01-28T13:50:51;100428.91;;;1.61;77.81
43681;BME280;29281;50.356;30.894;2023-01-28T13:51:57;100422.63;;;1.68;77.55
43681;BME280;29281;50.356;30.894;2023-01-28T13:53:15;100428.02;;;1.29;77.83
43681;BME280;29281;50.356;30.894;2023-01-28T13:54:16;100426.34;;;1.27;78.14
43681;BME280;29281;50.356;30.894;2023-01-28T13:55:17;100427.05;;;1.33;78.24
43681;BME280;29281;50.356;30.894;2023-01-28T13:56:26;100425.25;;;1.35;77.99
43681;BME280;29281;50.356;30.894;2023-01-28T13:59:09;100430.08;;;1.51;77.62
43681;BME280;29281;50.356;30.894;2023-01-28T14:04:05;100427.98;;;1.31;77.45
43681;BME280;29281;50.356;30.894;2023-01-28T14:16:23;100428.77;;;1.34;76.54
43681;BME280;29281;50.356;30.894;2023-01-28T14:18:54;100434.16;;;1.28;76.57
43681;BME280;29281;50.356;30.894;2023-01-28T14:21:20;100430.64;;;1.29;76.87
43681;BME280;29281;50.356;30.894;2023-01-28T14:22:23;100438.16;;;1.41;76.52
43681;BME280;29281;50.356;30.894;2023-01-28T14:23:27;100438.16;;;1.41;76.60
43681;BME280;29281;50.356;30.894;2023-01-28T14:24:37;100439.31;;;1.31;76.95
43681;BME280;29281;50.356;30.894;2023-01-28T14:27:59;100432.65;;;1.20;77.70
43681;BME280;29281;50.356;30.894;2023-01-28T14:30:17;100445.69;;;1.21;78.02
43681;BME280;29281;50.356;30.894;2023-01-28T14:31:32;100443.97;;;1.20;77.91
43681;BME280;29281;50.356;30.894;2023-01-28T14:32:43;100439.53;;;1.22;78.03
43681;BME280;29281;50.356;30.894;2023-01-28T14:33:43;100443.25;;;1.14;78.26
43681;BME280;29281;50.356;30.894;2023-01-28T14:34:49;100439.09;;;1.07;78.51
43681;BME280;29281;50.356;30.894;2023-01-28T14:35:52;100433.08;;;1.03;78.85
43681;BME280;29281;50.356;30.894;2023-01-28T14:36:56;100437.48;;;1.01;78.97
43681;BME280;29281;50.356;30.894;2023-01-28T14:38:05;100435.52;;;1.09;78.98
43681;BME280;29281;50.356;30.894;2023-01-28T14:39:17;100438.09;;;1.11;78.91
43681;BME280;29281;50.356;30.894;2023-01-28T14:40:22;100435.52;;;1.09;78.95
43681;BME280;29281;50.356;30.894;2023-01-28T14:41:27;100436.55;;;1.03;78.98
43681;BME280;29281;50.356;30.894;2023-01-28T14:42:31;100438.38;;;1.00;79.74
43681;BME280;29281;50.356;30.894;2023-01-28T14:43:35;100433.25;;;0.95;79.58
43681;BME280;29281;50.356;30.894;2023-01-28T14:44:43;100442.03;;;0.93;79.55
43681;BME280;29281;50.356;30.894;2023-01-28T14:47:38;100433.25;;;0.95;79.72
43681;BME280;29281;50.356;30.894;2023-01-28T14:50:59;100439.66;;;0.84;80.07
43681;BME280;29281;50.356;30.894;2023-01-28T14:52:15;100439.69;;;0.82;80.38
43681;BME280;29281;50.356;30.894;2023-01-28T14:54:37;100437.07;;;0.82;80.30
43681;BME280;29281;50.356;30.894;2023-01-28T14:55:56;100434.42;;;0.84;80.26
43681;BME280;29281;50.356;30.894;2023-01-28T14:57:07;100432.80;;;0.78;80.49
43681;BME280;29281;50.356;30.894;2023-01-28T14:58:15;100428.47;;;0.77;80.53
43681;BME280;29281;50.356;30.894;2023-01-28T14:59:25;100432.84;;;0.77;80.56
43681;BME280;29281;50.356;30.894;2023-01-28T15:00:31;100426.92;;;0.70;80.75
43681;BME280;29281;50.356;30.894;2023-01-28T15:01:35;100429.63;;;0.65;80.77
43681;BME280;29281;50.356;30.894;2023-01-28T15:02:42;100434.86;;;0.65;80.77
43681;BME280;29281;50.356;30.894;2023-01-28T15:03:45;100437.44;;;0.67;80.73
43681;BME280;29281;50.356;30.894;2023-01-28T15:04:50;100433.87;;;0.71;80.51
43681;BME280;29281;50.356;30.894;2023-01-28T15:06:13;100434.73;;;0.72;80.46
43681;BME280;29281;50.356;30.894;2023-01-28T15:08:25;100439.27;;;0.63;80.48
43681;BME280;29281;50.356;30.894;2023-01-28T15:09:29;100442.77;;;0.62;80.86
43681;BME280;29281;50.356;30.894;2023-01-28T15:10:37;100447.06;;;0.65;80.49
43681;BME280;29281;50.356;30.894;2023-01-28T15:11:40;100449.62;;;0.68;80.47
43681;BME280;29281;50.356;30.894;2023-01-28T15:12:51;100453.16;;;0.65;80.30
43681;BME280;29281;50.356;30.894;2023-01-28T15:13:56;100450.51;;;0.67;80.22
43681;BME280;29281;50.356;30.894;2023-01-28T15:15:13;100453.13;;;0.67;79.99
43681;BME280;29281;50.356;30.894;2023-01-28T15:16:20;100456.56;;;0.69;80.07
43681;BME280;29281;50.356;30.894;2023-01-28T15:17:25;100460.87;;;0.72;79.92
43681;BME280;29281;50.356;30.894;2023-01-28T15:18:31;100463.48;;;0.72;80.07
43681;BME280;29281;50.356;30.894;2023-01-28T15:19:34;100455.70;;;0.68;80.17
43681;BME280;29281;50.356;30.894;2023-01-28T15:20:42;100455.70;;;0.68;80.29
43681;BME280;29281;50.356;30.894;2023-01-28T15:21:46;100456.59;;;0.67;80.48
43681;BME280;29281;50.356;30.894;2023-01-28T15:22:53;100449.72;;;0.63;80.63
43681;BME280;29281;50.356;30.894;2023-01-28T15:23:55;100459.47;;;0.57;80.94
43681;BME280;29281;50.356;30.894;2023-01-28T15:24:59;100450.83;;;0.53;81.24
43681;BME280;29281;50.356;30.894;2023-01-28T15:26:06;100455.30;;;0.48;81.39
43681;BME280;29281;50.356;30.894;2023-01-28T15:27:15;100448.45;;;0.44;81.64
43681;BME280;29281;50.356;30.894;2023-01-28T15:28:24;100449.20;;;0.48;81.75
43681;BME280;29281;50.356;30.894;2023-01-28T15:29:31;100450.23;;;0.42;81.61
43681;BME280;29281;50.356;30.894;2023-01-28T15:30:35;100448.41;;;0.46;81.70
43681;BME280;29281;50.356;30.894;2023-01-28T15:31:38;100446.50;;;0.52;81.45
43681;BME280;29281;50.356;30.894;2023-01-28T15:32:43;100449.23;;;0.46;81.33
43681;BME280;29281;50.356;30.894;2023-01-28T15:34:03;100447.64;;;0.41;81.55
43681;BME280;29281;50.356;30.894;2023-01-28T15:35:09;100451.91;;;0.45;81.63
43681;BME280;29281;50.356;30.894;2023-01-28T15:36:14;100449.46;;;0.37;81.67
43681;BME280;29281;50.356;30.894;2023-01-28T15:37:17;100456.47;;;0.35;81.66
43681;BME280;29281;50.356;30.894;2023-01-28T15:38:22;100445.98;;;0.37;81.61
43681;BME280;29281;50.356;30.894;2023-01-28T15:39:25;100453.89;;;0.33;81.58
43681;BME280;29281;50.356;30.894;2023-01-28T15:40:38;100454.91;;;0.28;81.68
43681;BME280;29281;50.356;30.894;2023-01-28T15:41:38;100458.25;;;0.33;81.76
43681;BME280;29281;50.356;30.894;2023-01-28T15:42:44;100450.45;;;0.31;81.57
43681;BME280;29281;50.356;30.894;2023-01-28T15:43:48;100454.75;;;0.34;81.55
43681;BME280;29281;50.356;30.894;2023-01-28T15:44:52;100444.27;;;0.35;81.33
43681;BME280;29281;50.356;30.894;2023-01-28T15:45:58;100455.61;;;0.34;81.31
43681;BME280;29281;50.356;30.894;2023-01-28T15:47:21;100454.78;;;0.32;81.27
43681;BME280;29281;50.356;30.894;2023-01-28T15:48:37;100453.02;;;0.33;81.41
43681;BME280;29281;50.356;30.894;2023-01-28T15:49:42;100445.16;;;0.34;81.28
43681;BME280;29281;50.356;30.894;2023-01-28T15:50:47;100441.66;;;0.35;81.33
43681;BME280;29281;50.356;30.894;2023-01-28T15:51:50;100446.08;;;0.32;81.39
43681;BME280;29281;50.356;30.894;2023-01-28T15:52:55;100445.31;;;0.28;81.40
43681;BME280;29281;50.356;30.894;2023-01-28T15:54:01;100450.51;;;0.30;81.54
43681;BME280;29281;50.356;30.894;2023-01-28T15:55:06;100448.78;;;0.29;81.41
43681;BME280;29281;50.356;30.894;2023-01-28T15:56:12;100455.73;;;0.30;81.34
43681;BME280;29281;50.356;30.894;2023-01-28T15:58:28;100445.55;;;0.16;81.21
43681;BME280;29281;50.356;30.894;2023-01-28T15:59:31;100446.27;;;0.24;81.03
43681;BME280;29281;50.356;30.894;2023-01-28T16:00:37;100445.41;;;0.24;81.01
43681;BME280;29281;50.356;30.894;2023-01-28T16:01:41;100448.05;;;0.22;80.80
43681;BME280;29281;50.356;30.894;2023-01-28T16:02:46;100444.84;;;0.10;80.64
43681;BME280;29281;50.356;30.894;2023-01-28T16:04:02;100442.05;;;0.17;80.56
43681;BME280;29281;50.356;30.894;2023-01-28T16:05:22;100444.58;;;0.22;80.62
43681;BME280;29281;50.356;30.894;2023-01-28T16:06:15;100448.97;;;0.20;80.55
43681;BME280;29281;50.356;30.894;2023-01-28T16:07:21;100444.79;;;0.13;80.32
43681;BME280;29281;50.356;30.894;2023-01-28T16:08:44;100448.31;;;0.10;80.49
43681;BME280;29281;50.356;30.894;2023-01-28T16:09:32;100447.43;;;0.11;80.21
43681;BME280;29281;50.356;30.894;2023-01-28T16:10:36;100439.66;;;0.08;80.23
43681;BME280;29281;50.356;30.894;2023-01-28T16:11:40;100447.43;;;0.11;80.24
43681;BME280;29281;50.356;30.894;2023-01-28T16:12:48;100451.02;;;0.06;80.29
43681;BME280;29281;50.356;30.894;2023-01-28T16:13:55;100455.31;;;0.08;79.95
43681;BME280;29281;50.356;30.894;2023-01-28T16:15:02;100453.52;;;0.12;79.60
43681;BME280;29281;50.356;30.894;2023-01-28T16:16:09;100460.59;;;0.05;79.67
43681;BME280;29281;50.356;30.894;2023-01-28T16:17:21;100458.84;;;0.06;79.65
43681;BME280;29281;50.356;30.894;2023-01-28T16:18:37;100460.55;;;0.08;79.63
43681;BME280;29281;50.356;30.894;2023-01-28T16:19:42;100459.71;;;0.06;79.54
43681;BME280;29281;50.356;30.894;2023-01-28T16:20:47;100463.90;;;0.15;79.37
43681;BME280;29281;50.356;30.894;2023-01-28T16:21:52;100463.06;;;0.13;79.02
43681;BME280;29281;50.356;30.894;2023-01-28T16:22:56;100462.97;;;0.16;78.96
43681;BME280;29281;50.356;30.894;2023-01-28T16:24:04;100476.86;;;0.18;78.75
43681;BME280;29281;50.356;30.894;2023-01-28T16:25:28;100463.80;;;0.18;78.74
43681;BME280;29281;50.356;30.894;2023-01-28T16:26:34;100465.56;;;0.17;78.83
43681;BME280;29281;50.356;30.894;2023-01-28T16:27:37;100463.04;;;0.14;78.95
43681;BME280;29281;50.356;30.894;2023-01-28T16:28:44;100462.32;;;0.06;79.15
43681;BME280;29281;50.356;30.894;2023-01-28T16:29:47;100466.51;;;0.15;79.08
43681;BME280;29281;50.356;30.894;2023-01-28T16:30:51;100463.92;;;0.13;79.11
43681;BME280;29281;50.356;30.894;2023-01-28T16:31:55;100464.91;;;0.08;79.32
43681;BME280;29281;50.356;30.894;2023-01-28T16:33:00;100465.68;;;0.13;79.34
43681;BME280;29281;50.356;30.894;2023-01-28T16:34:03;100466.45;;;0.16;79.17
43681;BME280;29281;50.356;30.894;2023-01-28T16:35:17;100462.92;;;0.19;79.07
43681;BME280;29281;50.356;30.894;2023-01-28T16:36:22;100473.48;;;0.14;78.88
43681;BME280;29281;50.356;30.894;2023-01-28T16:37:29;100458.67;;;0.15;78.95
43681;BME280;29281;50.356;30.894;2023-01-28T16:38:32;100470.75;;;0.19;78.85
43681;BME280;29281;50.356;30.894;2023-01-28T16:39:36;100469.86;;;0.20;78.80
43681;BME280;29281;50.356;30.894;2023-01-28T16:40:39;100468.20;;;0.16;78.94
43681;BME280;29281;50.356;30.894;2023-01-28T16:41:46;100474.37;;;0.13;78.83
43681;BME280;29281;50.356;30.894;2023-01-28T16:42:52;100472.53;;;0.17;78.97
43681;BME280;29281;50.356;30.894;2023-01-28T16:43:57;100478.59;;;0.19;78.71
43681;BME280;29281;50.356;30.894;2023-01-28T16:45:04;100475.14;;;0.17;78.71
43681;BME280;29281;50.356;30.894;2023-01-28T16:46:09;100470.81;;;0.16;78.92
43681;BME280;29281;50.356;30.894;2023-01-28T16:47:12;100474.34;;;0.15;79.00
43681;BME280;29281;50.356;30.894;2023-01-28T16:48:16;100468.38;;;0.08;79.20